sensor_id;sensor_type;location;lat;lon;timestamp;P1;durP1;ratioP1;P2;durP2;ratioP2
12896;SDS011;6516;35.028;32.372;2024-03-29T00:01:24;15.57;;;4.40;;
12896;SDS011;6516;35.028;32.372;2024-03-29T00:06:40;15.68;;;4.43;;
12896;SDS011;6516;35.028;32.372;2024-03-29T00:09:06;11.13;;;4.70;;
12896;SDS011;6516;35.028;32.372;2024-03-29T00:11:32;15.67;;;4.37;;
12896;SDS011;6516;35.028;32.372;2024-03-29T00:13:58;15.10;;;4.75;;
12896;SDS011;6516;35.028;32.372;2024-03-29T00:16:24;16.17;;;4.68;;
12896;SDS011;6516;35.028;32.372;2024-03-29T00:18:53;15.45;;;4.30;;
12896;SDS011;6516;35.028;32.372;2024-03-29T00:21:19;11.00;;;4.33;;
12896;SDS011;6516;35.028;32.372;2024-03-29T00:23:45;11.82;;;4.50;;
12896;SDS011;6516;35.028;32.372;2024-03-29T00:26:12;10.45;;;4.18;;
12896;SDS011;6516;35.028;32.372;2024-03-29T00:28:38;13.93;;;4.75;;
12896;SDS011;6516;35.028;32.372;2024-03-29T00:31:04;14.20;;;4.50;;
12896;SDS011;6516;35.028;32.372;2024-03-29T00:33:30;13.20;;;4.75;;
12896;SDS011;6516;35.028;32.372;2024-03-29T00:35:56;14.98;;;5.18;;
12896;SDS011;6516;35.028;32.372;2024-03-29T00:38:22;13.80;;;5.10;;
12896;SDS011;6516;35.028;32.372;2024-03-29T00:40:48;9.07;;;3.92;;
12896;SDS011;6516;35.028;32.372;2024-03-29T00:43:14;10.30;;;4.43;;
12896;SDS011;6516;35.028;32.372;2024-03-29T00:45:40;12.23;;;4.68;;
12896;SDS011;6516;35.028;32.372;2024-03-29T00:48:06;12.87;;;4.60;;
12896;SDS011;6516;35.028;32.372;2024-03-29T00:50:32;10.35;;;4.20;;
12896;SDS011;6516;35.028;32.372;2024-03-29T00:52:59;10.30;;;4.28;;
12896;SDS011;6516;35.028;32.372;2024-03-29T00:55:25;10.98;;;4.80;;
12896;SDS011;6516;35.028;32.372;2024-03-29T00:57:51;13.57;;;4.40;;
12896;SDS011;6516;35.028;32.372;2024-03-29T01:00:17;12.67;;;4.80;;
12896;SDS011;6516;35.028;32.372;2024-03-29T01:02:43;9.40;;;4.45;;
12896;SDS011;6516;35.028;32.372;2024-03-29T01:05:09;14.27;;;4.93;;
12896;SDS011;6516;35.028;32.372;2024-03-29T01:07:35;12.00;;;4.73;;
12896;SDS011;6516;35.028;32.372;2024-03-29T01:10:00;15.43;;;5.40;;
12896;SDS011;6516;35.028;32.372;2024-03-29T01:12:27;21.30;;;4.85;;
12896;SDS011;6516;35.028;32.372;2024-03-29T01:14:53;20.80;;;5.60;;
12896;SDS011;6516;35.028;32.372;2024-03-29T01:17:19;11.10;;;5.00;;
12896;SDS011;6516;35.028;32.372;2024-03-29T01:19:45;14.90;;;5.00;;
12896;SDS011;6516;35.028;32.372;2024-03-29T01:22:11;16.42;;;5.00;;
12896;SDS011;6516;35.028;32.372;2024-03-29T01:24:37;13.83;;;4.90;;
12896;SDS011;6516;35.028;32.372;2024-03-29T01:27:04;16.52;;;5.18;;
12896;SDS011;6516;35.028;32.372;2024-03-29T01:29:31;16.60;;;5.22;;
12896;SDS011;6516;35.028;32.372;2024-03-29T01:31:58;14.70;;;5.28;;
12896;SDS011;6516;35.028;32.372;2024-03-29T01:34:24;13.98;;;5.20;;
12896;SDS011;6516;35.028;32.372;2024-03-29T01:36:49;15.60;;;5.20;;
12896;SDS011;6516;35.028;32.372;2024-03-29T01:39:15;13.60;;;4.70;;
12896;SDS011;6516;35.028;32.372;2024-03-29T01:41:45;13.13;;;4.85;;
12896;SDS011;6516;35.028;32.372;2024-03-29T01:44:11;14.93;;;5.25;;
12896;SDS011;6516;35.028;32.372;2024-03-29T01:46:36;15.20;;;5.30;;
12896;SDS011;6516;35.028;32.372;2024-03-29T01:49:03;14.93;;;5.40;;
12896;SDS011;6516;35.028;32.372;2024-03-29T01:51:30;18.30;;;5.93;;
12896;SDS011;6516;35.028;32.372;2024-03-29T01:54:00;15.85;;;5.53;;
12896;SDS011;6516;35.028;32.372;2024-03-29T01:56:26;11.60;;;4.70;;
12896;SDS011;6516;35.028;32.372;2024-03-29T01:58:53;13.00;;;4.70;;
12896;SDS011;6516;35.028;32.372;2024-03-29T02:01:22;15.57;;;4.82;;
12896;SDS011;6516;35.028;32.372;2024-03-29T02:03:51;14.50;;;5.13;;
12896;SDS011;6516;35.028;32.372;2024-03-29T02:06:18;15.32;;;5.32;;
12896;SDS011;6516;35.028;32.372;2024-03-29T02:08:44;15.45;;;5.65;;
12896;SDS011;6516;35.028;32.372;2024-03-29T02:11:10;16.87;;;5.20;;
12896;SDS011;6516;35.028;32.372;2024-03-29T02:13:36;15.73;;;4.68;;
12896;SDS011;6516;35.028;32.372;2024-03-29T02:16:02;16.92;;;5.45;;
12896;SDS011;6516;35.028;32.372;2024-03-29T02:18:29;16.30;;;4.70;;
12896;SDS011;6516;35.028;32.372;2024-03-29T02:20:55;17.63;;;4.80;;
12896;SDS011;6516;35.028;32.372;2024-03-29T02:23:23;15.48;;;4.85;;
12896;SDS011;6516;35.028;32.372;2024-03-29T02:25:55;13.13;;;4.70;;
12896;SDS011;6516;35.028;32.372;2024-03-29T02:28:24;12.52;;;4.50;;
12896;SDS011;6516;35.028;32.372;2024-03-29T02:30:50;13.93;;;4.90;;
12896;SDS011;6516;35.028;32.372;2024-03-29T02:33:16;13.93;;;4.87;;
12896;SDS011;6516;35.028;32.372;2024-03-29T02:35:42;11.73;;;4.68;;
12896;SDS011;6516;35.028;32.372;2024-03-29T02:38:08;9.88;;;4.57;;
12896;SDS011;6516;35.028;32.372;2024-03-29T02:40:34;15.63;;;5.13;;
12896;SDS011;6516;35.028;32.372;2024-03-29T02:43:00;14.70;;;5.20;;
12896;SDS011;6516;35.028;32.372;2024-03-29T02:45:26;10.77;;;4.70;;
12896;SDS011;6516;35.028;32.372;2024-03-29T02:47:52;13.15;;;4.35;;
12896;SDS011;6516;35.028;32.372;2024-03-29T02:50:18;14.40;;;4.50;;
12896;SDS011;6516;35.028;32.372;2024-03-29T02:52:44;11.82;;;4.70;;
12896;SDS011;6516;35.028;32.372;2024-03-29T02:55:10;12.30;;;5.40;;
12896;SDS011;6516;35.028;32.372;2024-03-29T02:57:36;15.05;;;5.70;;
12896;SDS011;6516;35.028;32.372;2024-03-29T03:00:06;15.93;;;5.47;;
12896;SDS011;6516;35.028;32.372;2024-03-29T03:02:39;14.20;;;5.53;;
12896;SDS011;6516;35.028;32.372;2024-03-29T03:05:06;11.63;;;5.00;;
12896;SDS011;6516;35.028;32.372;2024-03-29T03:07:36;18.67;;;6.45;;
12896;SDS011;6516;35.028;32.372;2024-03-29T03:10:21;15.38;;;6.30;;
12896;SDS011;6516;35.028;32.372;2024-03-29T03:13:05;20.03;;;5.47;;
12896;SDS011;6516;35.028;32.372;2024-03-29T03:15:31;15.65;;;6.82;;
12896;SDS011;6516;35.028;32.372;2024-03-29T03:17:57;14.32;;;6.20;;
12896;SDS011;6516;35.028;32.372;2024-03-29T03:20:23;20.58;;;6.30;;
12896;SDS011;6516;35.028;32.372;2024-03-29T03:22:55;14.57;;;6.07;;
12896;SDS011;6516;35.028;32.372;2024-03-29T03:25:22;17.27;;;6.65;;
12896;SDS011;6516;35.028;32.372;2024-03-29T03:27:52;17.40;;;6.60;;
12896;SDS011;6516;35.028;32.372;2024-03-29T03:30:18;18.67;;;7.10;;
12896;SDS011;6516;35.028;32.372;2024-03-29T03:32:44;18.37;;;6.30;;
12896;SDS011;6516;35.028;32.372;2024-03-29T03:35:10;18.73;;;7.53;;
12896;SDS011;6516;35.028;32.372;2024-03-29T03:37:36;15.85;;;6.32;;
12896;SDS011;6516;35.028;32.372;2024-03-29T03:40:02;17.92;;;7.05;;
12896;SDS011;6516;35.028;32.372;2024-03-29T03:42:29;20.33;;;6.83;;
12896;SDS011;6516;35.028;32.372;2024-03-29T03:44:55;15.88;;;7.28;;
12896;SDS011;6516;35.028;32.372;2024-03-29T03:47:21;14.10;;;6.95;;
12896;SDS011;6516;35.028;32.372;2024-03-29T03:49:47;15.23;;;7.03;;
12896;SDS011;6516;35.028;32.372;2024-03-29T03:52:13;16.57;;;7.07;;
12896;SDS011;6516;35.028;32.372;2024-03-29T03:54:39;16.77;;;6.18;;
12896;SDS011;6516;35.028;32.372;2024-03-29T03:57:05;17.77;;;6.60;;
12896;SDS011;6516;35.028;32.372;2024-03-29T03:59:31;18.95;;;6.70;;
12896;SDS011;6516;35.028;32.372;2024-03-29T04:01:57;17.57;;;7.27;;
12896;SDS011;6516;35.028;32.372;2024-03-29T04:04:23;21.25;;;7.43;;
12896;SDS011;6516;35.028;32.372;2024-03-29T04:06:49;18.05;;;7.68;;
12896;SDS011;6516;35.028;32.372;2024-03-29T04:09:16;19.08;;;8.43;;
12896;SDS011;6516;35.028;32.372;2024-03-29T04:11:42;15.43;;;6.80;;
12896;SDS011;6516;35.028;32.372;2024-03-29T04:14:08;15.65;;;8.07;;
12896;SDS011;6516;35.028;32.372;2024-03-29T04:16:35;15.90;;;8.07;;
12896;SDS011;6516;35.028;32.372;2024-03-29T04:19:01;19.33;;;7.65;;
12896;SDS011;6516;35.028;32.372;2024-03-29T04:21:26;17.53;;;8.37;;
12896;SDS011;6516;35.028;32.372;2024-03-29T04:23:52;16.58;;;8.40;;
12896;SDS011;6516;35.028;32.372;2024-03-29T04:26:18;21.40;;;7.93;;
12896;SDS011;6516;35.028;32.372;2024-03-29T04:28:44;18.40;;;8.43;;
12896;SDS011;6516;35.028;32.372;2024-03-29T04:31:10;15.53;;;8.00;;
12896;SDS011;6516;35.028;32.372;2024-03-29T04:33:36;18.40;;;8.10;;
12896;SDS011;6516;35.028;32.372;2024-03-29T04:36:03;20.15;;;8.02;;
12896;SDS011;6516;35.028;32.372;2024-03-29T04:38:30;18.25;;;8.10;;
12896;SDS011;6516;35.028;32.372;2024-03-29T04:40:57;23.53;;;8.30;;
12896;SDS011;6516;35.028;32.372;2024-03-29T04:43:25;21.95;;;9.30;;
12896;SDS011;6516;35.028;32.372;2024-03-29T04:46:12;18.10;;;8.75;;
12896;SDS011;6516;35.028;32.372;2024-03-29T04:48:42;16.05;;;8.25;;
12896;SDS011;6516;35.028;32.372;2024-03-29T04:51:11;18.60;;;7.97;;
12896;SDS011;6516;35.028;32.372;2024-03-29T04:53:37;18.10;;;7.87;;
12896;SDS011;6516;35.028;32.372;2024-03-29T04:56:04;18.65;;;7.68;;
12896;SDS011;6516;35.028;32.372;2024-03-29T04:58:31;14.50;;;7.97;;
12896;SDS011;6516;35.028;32.372;2024-03-29T05:00:57;18.55;;;8.05;;
12896;SDS011;6516;35.028;32.372;2024-03-29T05:03:24;14.88;;;7.78;;
12896;SDS011;6516;35.028;32.372;2024-03-29T05:05:50;14.43;;;7.50;;
12896;SDS011;6516;35.028;32.372;2024-03-29T05:08:17;17.55;;;7.88;;
12896;SDS011;6516;35.028;32.372;2024-03-29T05:10:45;14.75;;;8.00;;
12896;SDS011;6516;35.028;32.372;2024-03-29T05:13:12;19.25;;;8.32;;
12896;SDS011;6516;35.028;32.372;2024-03-29T05:15:38;13.57;;;8.10;;
12896;SDS011;6516;35.028;32.372;2024-03-29T05:18:04;13.07;;;7.87;;
12896;SDS011;6516;35.028;32.372;2024-03-29T05:20:30;16.98;;;8.07;;
12896;SDS011;6516;35.028;32.372;2024-03-29T05:23:00;13.77;;;7.97;;
12896;SDS011;6516;35.028;32.372;2024-03-29T05:25:26;13.30;;;7.70;;
12896;SDS011;6516;35.028;32.372;2024-03-29T05:27:52;14.73;;;8.30;;
12896;SDS011;6516;35.028;32.372;2024-03-29T05:30:18;18.57;;;8.17;;
12896;SDS011;6516;35.028;32.372;2024-03-29T05:32:45;14.77;;;7.45;;
12896;SDS011;6516;35.028;32.372;2024-03-29T05:35:11;17.13;;;8.23;;
12896;SDS011;6516;35.028;32.372;2024-03-29T05:37:39;12.25;;;7.35;;
12896;SDS011;6516;35.028;32.372;2024-03-29T05:40:05;21.52;;;8.52;;
12896;SDS011;6516;35.028;32.372;2024-03-29T05:42:32;13.83;;;7.63;;
12896;SDS011;6516;35.028;32.372;2024-03-29T05:44:59;21.13;;;8.05;;
12896;SDS011;6516;35.028;32.372;2024-03-29T05:47:25;12.63;;;7.28;;
12896;SDS011;6516;35.028;32.372;2024-03-29T05:49:53;12.90;;;7.20;;
12896;SDS011;6516;35.028;32.372;2024-03-29T05:52:19;14.57;;;7.60;;
12896;SDS011;6516;35.028;32.372;2024-03-29T05:54:48;13.57;;;6.77;;
12896;SDS011;6516;35.028;32.372;2024-03-29T05:57:15;10.82;;;6.60;;
12896;SDS011;6516;35.028;32.372;2024-03-29T05:59:41;13.23;;;6.95;;
12896;SDS011;6516;35.028;32.372;2024-03-29T06:02:07;15.10;;;7.45;;
12896;SDS011;6516;35.028;32.372;2024-03-29T06:04:33;12.93;;;6.77;;
12896;SDS011;6516;35.028;32.372;2024-03-29T06:06:59;14.15;;;6.90;;
12896;SDS011;6516;35.028;32.372;2024-03-29T06:09:25;15.63;;;7.05;;
12896;SDS011;6516;35.028;32.372;2024-03-29T06:11:52;13.48;;;6.88;;
12896;SDS011;6516;35.028;32.372;2024-03-29T06:14:20;18.65;;;6.95;;
12896;SDS011;6516;35.028;32.372;2024-03-29T06:17:04;12.90;;;6.40;;
12896;SDS011;6516;35.028;32.372;2024-03-29T06:19:50;18.52;;;6.57;;
12896;SDS011;6516;35.028;32.372;2024-03-29T06:22:22;14.88;;;6.28;;
12896;SDS011;6516;35.028;32.372;2024-03-29T06:24:55;14.93;;;6.45;;
12896;SDS011;6516;35.028;32.372;2024-03-29T06:27:30;11.18;;;5.65;;
12896;SDS011;6516;35.028;32.372;2024-03-29T06:29:59;17.73;;;6.33;;
12896;SDS011;6516;35.028;32.372;2024-03-29T06:32:27;13.20;;;6.30;;
12896;SDS011;6516;35.028;32.372;2024-03-29T06:34:53;11.63;;;5.88;;
12896;SDS011;6516;35.028;32.372;2024-03-29T06:37:19;14.20;;;6.20;;
12896;SDS011;6516;35.028;32.372;2024-03-29T06:39:47;13.88;;;6.22;;
12896;SDS011;6516;35.028;32.372;2024-03-29T06:42:14;15.17;;;6.40;;
12896;SDS011;6516;35.028;32.372;2024-03-29T06:44:39;12.48;;;6.07;;
12896;SDS011;6516;35.028;32.372;2024-03-29T06:47:06;14.02;;;6.38;;
12896;SDS011;6516;35.028;32.372;2024-03-29T06:49:33;19.48;;;7.25;;
12896;SDS011;6516;35.028;32.372;2024-03-29T06:51:59;14.60;;;7.07;;
12896;SDS011;6516;35.028;32.372;2024-03-29T06:54:29;16.27;;;6.90;;
12896;SDS011;6516;35.028;32.372;2024-03-29T06:56:57;14.65;;;6.50;;
12896;SDS011;6516;35.028;32.372;2024-03-29T06:59:23;17.80;;;7.15;;
12896;SDS011;6516;35.028;32.372;2024-03-29T07:01:50;13.27;;;6.45;;
12896;SDS011;6516;35.028;32.372;2024-03-29T07:04:23;14.23;;;6.77;;
12896;SDS011;6516;35.028;32.372;2024-03-29T07:06:50;15.50;;;6.72;;
12896;SDS011;6516;35.028;32.372;2024-03-29T07:09:17;11.68;;;6.70;;
12896;SDS011;6516;35.028;32.372;2024-03-29T07:11:47;18.05;;;7.07;;
12896;SDS011;6516;35.028;32.372;2024-03-29T07:14:15;14.57;;;5.97;;
12896;SDS011;6516;35.028;32.372;2024-03-29T07:16:43;12.27;;;6.07;;
12896;SDS011;6516;35.028;32.372;2024-03-29T07:19:09;15.73;;;6.57;;
12896;SDS011;6516;35.028;32.372;2024-03-29T07:21:44;19.48;;;6.20;;
12896;SDS011;6516;35.028;32.372;2024-03-29T07:24:11;12.23;;;6.25;;
12896;SDS011;6516;35.028;32.372;2024-03-29T07:26:37;14.57;;;5.88;;
12896;SDS011;6516;35.028;32.372;2024-03-29T07:29:03;15.80;;;5.60;;
12896;SDS011;6516;35.028;32.372;2024-03-29T07:31:31;15.80;;;6.00;;
12896;SDS011;6516;35.028;32.372;2024-03-29T07:33:58;15.77;;;6.13;;
12896;SDS011;6516;35.028;32.372;2024-03-29T07:36:24;15.25;;;6.00;;
12896;SDS011;6516;35.028;32.372;2024-03-29T07:38:52;12.40;;;6.03;;
12896;SDS011;6516;35.028;32.372;2024-03-29T07:41:17;14.30;;;6.10;;
12896;SDS011;6516;35.028;32.372;2024-03-29T07:43:53;12.20;;;5.65;;
12896;SDS011;6516;35.028;32.372;2024-03-29T07:46:29;12.73;;;5.50;;
12896;SDS011;6516;35.028;32.372;2024-03-29T07:48:58;15.07;;;5.78;;
12896;SDS011;6516;35.028;32.372;2024-03-29T07:51:24;14.27;;;5.60;;
12896;SDS011;6516;35.028;32.372;2024-03-29T07:53:50;16.35;;;5.90;;
12896;SDS011;6516;35.028;32.372;2024-03-29T07:56:16;16.00;;;6.25;;
12896;SDS011;6516;35.028;32.372;2024-03-29T07:58:42;13.70;;;5.70;;
12896;SDS011;6516;35.028;32.372;2024-03-29T08:01:09;18.53;;;6.60;;
12896;SDS011;6516;35.028;32.372;2024-03-29T08:03:35;19.85;;;6.03;;
12896;SDS011;6516;35.028;32.372;2024-03-29T08:06:01;14.73;;;6.25;;
12896;SDS011;6516;35.028;32.372;2024-03-29T08:08:34;13.40;;;5.80;;
12896;SDS011;6516;35.028;32.372;2024-03-29T08:11:01;14.13;;;6.07;;
12896;SDS011;6516;35.028;32.372;2024-03-29T08:13:27;17.90;;;6.30;;
12896;SDS011;6516;35.028;32.372;2024-03-29T08:15:56;14.65;;;6.13;;
12896;SDS011;6516;35.028;32.372;2024-03-29T08:18:24;19.70;;;6.30;;
12896;SDS011;6516;35.028;32.372;2024-03-29T08:20:51;16.55;;;6.30;;
12896;SDS011;6516;35.028;32.372;2024-03-29T08:23:17;19.97;;;6.20;;
12896;SDS011;6516;35.028;32.372;2024-03-29T08:25:43;14.52;;;5.85;;
12896;SDS011;6516;35.028;32.372;2024-03-29T08:28:09;22.35;;;6.00;;
12896;SDS011;6516;35.028;32.372;2024-03-29T08:30:36;17.88;;;6.30;;
12896;SDS011;6516;35.028;32.372;2024-03-29T08:33:02;17.42;;;6.18;;
12896;SDS011;6516;35.028;32.372;2024-03-29T08:35:34;12.00;;;5.60;;
12896;SDS011;6516;35.028;32.372;2024-03-29T08:38:01;11.95;;;5.47;;
12896;SDS011;6516;35.028;32.372;2024-03-29T08:40:27;15.50;;;5.85;;
12896;SDS011;6516;35.028;32.372;2024-03-29T08:42:58;16.95;;;5.63;;
12896;SDS011;6516;35.028;32.372;2024-03-29T08:45:24;17.13;;;6.43;;
12896;SDS011;6516;35.028;32.372;2024-03-29T08:47:50;19.23;;;6.13;;
12896;SDS011;6516;35.028;32.372;2024-03-29T08:50:16;22.30;;;6.60;;
12896;SDS011;6516;35.028;32.372;2024-03-29T08:52:42;18.92;;;5.40;;
12896;SDS011;6516;35.028;32.372;2024-03-29T08:55:09;13.55;;;6.00;;
12896;SDS011;6516;35.028;32.372;2024-03-29T08:57:35;17.05;;;6.20;;
12896;SDS011;6516;35.028;32.372;2024-03-29T09:00:01;18.33;;;6.07;;
12896;SDS011;6516;35.028;32.372;2024-03-29T09:02:28;16.73;;;6.20;;
12896;SDS011;6516;35.028;32.372;2024-03-29T09:04:54;13.02;;;5.65;;
12896;SDS011;6516;35.028;32.372;2024-03-29T09:07:20;14.27;;;6.60;;
12896;SDS011;6516;35.028;32.372;2024-03-29T09:09:48;19.40;;;7.07;;
12896;SDS011;6516;35.028;32.372;2024-03-29T09:12:15;17.27;;;6.45;;
12896;SDS011;6516;35.028;32.372;2024-03-29T09:14:43;18.13;;;6.82;;
12896;SDS011;6516;35.028;32.372;2024-03-29T09:17:11;18.27;;;6.32;;
12896;SDS011;6516;35.028;32.372;2024-03-29T09:19:37;16.70;;;6.43;;
12896;SDS011;6516;35.028;32.372;2024-03-29T09:22:03;19.50;;;6.90;;
12896;SDS011;6516;35.028;32.372;2024-03-29T09:24:29;17.95;;;6.13;;
12896;SDS011;6516;35.028;32.372;2024-03-29T09:26:57;13.75;;;6.72;;
12896;SDS011;6516;35.028;32.372;2024-03-29T09:29:22;15.57;;;6.60;;
12896;SDS011;6516;35.028;32.372;2024-03-29T09:31:48;18.90;;;6.90;;
12896;SDS011;6516;35.028;32.372;2024-03-29T09:34:14;18.23;;;7.30;;
12896;SDS011;6516;35.028;32.372;2024-03-29T09:36:40;18.65;;;6.70;;
12896;SDS011;6516;35.028;32.372;2024-03-29T09:39:06;21.88;;;7.82;;
12896;SDS011;6516;35.028;32.372;2024-03-29T09:41:33;17.00;;;6.97;;
12896;SDS011;6516;35.028;32.372;2024-03-29T09:44:03;17.30;;;7.13;;
12896;SDS011;6516;35.028;32.372;2024-03-29T09:46:31;17.98;;;7.32;;
12896;SDS011;6516;35.028;32.372;2024-03-29T09:48:59;15.07;;;6.85;;
12896;SDS011;6516;35.028;32.372;2024-03-29T09:51:27;17.23;;;7.75;;
12896;SDS011;6516;35.028;32.372;2024-03-29T09:53:54;17.97;;;7.83;;
12896;SDS011;6516;35.028;32.372;2024-03-29T09:56:22;20.00;;;7.65;;
12896;SDS011;6516;35.028;32.372;2024-03-29T09:58:52;16.92;;;7.30;;
12896;SDS011;6516;35.028;32.372;2024-03-29T10:01:18;18.65;;;8.23;;
12896;SDS011;6516;35.028;32.372;2024-03-29T10:03:45;19.80;;;7.70;;
12896;SDS011;6516;35.028;32.372;2024-03-29T10:06:16;16.97;;;8.13;;
12896;SDS011;6516;35.028;32.372;2024-03-29T10:08:46;16.88;;;7.85;;
12896;SDS011;6516;35.028;32.372;2024-03-29T10:11:14;18.63;;;8.38;;
12896;SDS011;6516;35.028;32.372;2024-03-29T10:13:44;17.02;;;8.05;;
12896;SDS011;6516;35.028;32.372;2024-03-29T10:16:11;20.52;;;8.25;;
12896;SDS011;6516;35.028;32.372;2024-03-29T10:18:40;22.43;;;8.90;;
12896;SDS011;6516;35.028;32.372;2024-03-29T10:21:08;24.35;;;8.68;;
12896;SDS011;6516;35.028;32.372;2024-03-29T10:23:35;16.75;;;7.60;;
12896;SDS011;6516;35.028;32.372;2024-03-29T10:26:01;16.75;;;8.27;;
12896;SDS011;6516;35.028;32.372;2024-03-29T10:28:32;17.60;;;8.07;;
12896;SDS011;6516;35.028;32.372;2024-03-29T10:31:03;16.37;;;7.80;;
12896;SDS011;6516;35.028;32.372;2024-03-29T10:33:31;17.42;;;7.63;;
12896;SDS011;6516;35.028;32.372;2024-03-29T10:36:02;18.40;;;7.38;;
12896;SDS011;6516;35.028;32.372;2024-03-29T10:38:33;16.70;;;7.60;;
12896;SDS011;6516;35.028;32.372;2024-03-29T10:41:01;18.98;;;7.75;;
12896;SDS011;6516;35.028;32.372;2024-03-29T10:43:31;18.17;;;8.53;;
12896;SDS011;6516;35.028;32.372;2024-03-29T10:45:59;21.42;;;8.95;;
12896;SDS011;6516;35.028;32.372;2024-03-29T10:48:26;19.58;;;8.82;;
12896;SDS011;6516;35.028;32.372;2024-03-29T10:50:56;17.25;;;8.75;;
12896;SDS011;6516;35.028;32.372;2024-03-29T10:53:24;20.10;;;8.90;;
12896;SDS011;6516;35.028;32.372;2024-03-29T10:55:58;20.07;;;8.93;;
12896;SDS011;6516;35.028;32.372;2024-03-29T10:58:30;19.15;;;8.88;;
12896;SDS011;6516;35.028;32.372;2024-03-29T11:01:01;19.83;;;8.30;;
12896;SDS011;6516;35.028;32.372;2024-03-29T11:05:55;18.57;;;9.23;;
12896;SDS011;6516;35.028;32.372;2024-03-29T11:08:32;19.77;;;9.15;;
12896;SDS011;6516;35.028;32.372;2024-03-29T11:11:03;18.80;;;9.55;;
12896;SDS011;6516;35.028;32.372;2024-03-29T11:16:23;20.00;;;9.27;;
12896;SDS011;6516;35.028;32.372;2024-03-29T11:18:50;19.90;;;9.60;;
12896;SDS011;6516;35.028;32.372;2024-03-29T11:21:17;20.30;;;9.43;;
12896;SDS011;6516;35.028;32.372;2024-03-29T11:23:52;20.75;;;9.38;;
12896;SDS011;6516;35.028;32.372;2024-03-29T11:26:20;21.13;;;9.65;;
12896;SDS011;6516;35.028;32.372;2024-03-29T11:28:50;19.65;;;9.80;;
12896;SDS011;6516;35.028;32.372;2024-03-29T11:31:17;22.07;;;9.63;;
12896;SDS011;6516;35.028;32.372;2024-03-29T11:33:48;19.05;;;9.48;;
12896;SDS011;6516;35.028;32.372;2024-03-29T11:38:52;20.00;;;9.48;;
12896;SDS011;6516;35.028;32.372;2024-03-29T11:41:23;20.35;;;9.35;;
12896;SDS011;6516;35.028;32.372;2024-03-29T11:43:54;19.47;;;9.47;;
12896;SDS011;6516;35.028;32.372;2024-03-29T11:46:21;22.27;;;9.70;;
12896;SDS011;6516;35.028;32.372;2024-03-29T11:48:49;20.75;;;8.20;;
12896;SDS011;6516;35.028;32.372;2024-03-29T11:51:17;20.25;;;8.65;;
12896;SDS011;6516;35.028;32.372;2024-03-29T11:53:49;18.38;;;8.85;;
12896;SDS011;6516;35.028;32.372;2024-03-29T11:56:17;19.33;;;9.10;;
12896;SDS011;6516;35.028;32.372;2024-03-29T11:58:43;18.10;;;8.82;;
12896;SDS011;6516;35.028;32.372;2024-03-29T12:01:09;15.77;;;8.75;;
12896;SDS011;6516;35.028;32.372;2024-03-29T12:03:39;16.85;;;7.95;;
12896;SDS011;6516;35.028;32.372;2024-03-29T12:06:06;19.30;;;8.27;;
12896;SDS011;6516;35.028;32.372;2024-03-29T12:08:33;18.23;;;8.23;;
12896;SDS011;6516;35.028;32.372;2024-03-29T12:11:07;19.77;;;7.97;;
12896;SDS011;6516;35.028;32.372;2024-03-29T12:13:34;20.92;;;7.95;;
12896;SDS011;6516;35.028;32.372;2024-03-29T12:16:00;18.40;;;8.48;;
12896;SDS011;6516;35.028;32.372;2024-03-29T12:18:26;19.67;;;7.75;;
12896;SDS011;6516;35.028;32.372;2024-03-29T12:21:00;20.47;;;7.87;;
12896;SDS011;6516;35.028;32.372;2024-03-29T12:23:26;15.73;;;7.63;;
12896;SDS011;6516;35.028;32.372;2024-03-29T12:25:54;21.20;;;7.80;;
12896;SDS011;6516;35.028;32.372;2024-03-29T12:28:23;14.98;;;7.78;;
12896;SDS011;6516;35.028;32.372;2024-03-29T12:30:53;19.10;;;7.60;;
12896;SDS011;6516;35.028;32.372;2024-03-29T12:33:20;15.20;;;8.00;;
12896;SDS011;6516;35.028;32.372;2024-03-29T12:35:48;17.52;;;7.82;;
12896;SDS011;6516;35.028;32.372;2024-03-29T12:38:18;17.90;;;8.15;;
12896;SDS011;6516;35.028;32.372;2024-03-29T12:40:47;19.45;;;8.07;;
12896;SDS011;6516;35.028;32.372;2024-03-29T12:43:19;20.77;;;8.05;;
12896;SDS011;6516;35.028;32.372;2024-03-29T12:45:47;18.40;;;8.73;;
12896;SDS011;6516;35.028;32.372;2024-03-29T12:48:18;20.80;;;8.50;;
12896;SDS011;6516;35.028;32.372;2024-03-29T12:50:48;19.45;;;8.38;;
12896;SDS011;6516;35.028;32.372;2024-03-29T12:53:15;15.98;;;8.10;;
12896;SDS011;6516;35.028;32.372;2024-03-29T12:55:43;18.52;;;8.32;;
12896;SDS011;6516;35.028;32.372;2024-03-29T12:58:13;17.23;;;8.17;;
12896;SDS011;6516;35.028;32.372;2024-03-29T13:00:42;19.35;;;8.18;;
12896;SDS011;6516;35.028;32.372;2024-03-29T13:03:08;18.40;;;8.30;;
12896;SDS011;6516;35.028;32.372;2024-03-29T13:05:35;16.55;;;7.43;;
12896;SDS011;6516;35.028;32.372;2024-03-29T13:08:09;17.85;;;8.02;;
12896;SDS011;6516;35.028;32.372;2024-03-29T13:10:40;21.40;;;8.17;;
12896;SDS011;6516;35.028;32.372;2024-03-29T13:13:07;20.83;;;7.72;;
12896;SDS011;6516;35.028;32.372;2024-03-29T13:15:34;16.75;;;7.75;;
12896;SDS011;6516;35.028;32.372;2024-03-29T13:18:03;18.17;;;8.23;;
12896;SDS011;6516;35.028;32.372;2024-03-29T13:20:30;16.13;;;7.15;;
12896;SDS011;6516;35.028;32.372;2024-03-29T13:22:58;17.10;;;8.10;;
12896;SDS011;6516;35.028;32.372;2024-03-29T13:25:24;17.98;;;7.93;;
12896;SDS011;6516;35.028;32.372;2024-03-29T13:27:51;19.02;;;8.50;;
12896;SDS011;6516;35.028;32.372;2024-03-29T13:30:23;20.33;;;8.70;;
12896;SDS011;6516;35.028;32.372;2024-03-29T13:32:51;18.42;;;7.85;;
12896;SDS011;6516;35.028;32.372;2024-03-29T13:35:18;17.37;;;7.97;;
12896;SDS011;6516;35.028;32.372;2024-03-29T13:37:48;20.40;;;8.63;;
12896;SDS011;6516;35.028;32.372;2024-03-29T13:40:16;15.57;;;7.38;;
12896;SDS011;6516;35.028;32.372;2024-03-29T13:42:46;22.30;;;8.68;;
12896;SDS011;6516;35.028;32.372;2024-03-29T13:45:14;17.00;;;8.23;;
12896;SDS011;6516;35.028;32.372;2024-03-29T13:47:41;18.67;;;8.03;;
12896;SDS011;6516;35.028;32.372;2024-03-29T13:50:09;17.40;;;7.72;;
12896;SDS011;6516;35.028;32.372;2024-03-29T13:52:36;17.42;;;7.57;;
12896;SDS011;6516;35.028;32.372;2024-03-29T13:55:03;16.48;;;7.55;;
12896;SDS011;6516;35.028;32.372;2024-03-29T13:57:30;18.58;;;7.28;;
12896;SDS011;6516;35.028;32.372;2024-03-29T13:59:57;14.37;;;6.50;;
12896;SDS011;6516;35.028;32.372;2024-03-29T14:02:27;15.38;;;6.97;;
12896;SDS011;6516;35.028;32.372;2024-03-29T14:04:53;19.45;;;7.88;;
12896;SDS011;6516;35.028;32.372;2024-03-29T14:07:20;14.48;;;7.10;;
12896;SDS011;6516;35.028;32.372;2024-03-29T14:09:49;16.95;;;6.55;;
12896;SDS011;6516;35.028;32.372;2024-03-29T14:12:15;14.13;;;6.27;;
12896;SDS011;6516;35.028;32.372;2024-03-29T14:14:43;20.27;;;7.05;;
12896;SDS011;6516;35.028;32.372;2024-03-29T14:17:13;16.60;;;6.28;;
12896;SDS011;6516;35.028;32.372;2024-03-29T14:19:39;15.93;;;5.88;;
12896;SDS011;6516;35.028;32.372;2024-03-29T14:22:06;16.65;;;6.10;;
12896;SDS011;6516;35.028;32.372;2024-03-29T14:24:33;15.87;;;6.63;;
12896;SDS011;6516;35.028;32.372;2024-03-29T14:27:03;17.67;;;6.30;;
12896;SDS011;6516;35.028;32.372;2024-03-29T14:29:32;18.13;;;6.75;;
12896;SDS011;6516;35.028;32.372;2024-03-29T14:32:00;19.08;;;6.95;;
12896;SDS011;6516;35.028;32.372;2024-03-29T14:34:27;18.83;;;7.18;;
12896;SDS011;6516;35.028;32.372;2024-03-29T14:36:57;20.27;;;7.43;;
12896;SDS011;6516;35.028;32.372;2024-03-29T14:39:23;21.35;;;7.70;;
12896;SDS011;6516;35.028;32.372;2024-03-29T14:41:49;16.65;;;7.15;;
12896;SDS011;6516;35.028;32.372;2024-03-29T14:44:16;16.83;;;7.63;;
12896;SDS011;6516;35.028;32.372;2024-03-29T14:46:45;18.05;;;7.93;;
12896;SDS011;6516;35.028;32.372;2024-03-29T14:49:14;18.33;;;7.80;;